Santa Lucia — A8IP5 — position and weather

sailwx.info

Track history (hours):
 
Tides and Currents Weather Stations Pressure Air Temp Water Temp Dewpoint Dewpoint Depression Visibility Wind Speed Wind Dir Waves Ship Positions

Santa Lucia

Last reported at 2016-Apr-21 16:33 UTC. Time now 2016-Apr-29 01:57 UTC.
Position N 37°22' W 074°43'.

Length 143 m; beam 22 m.

Type: Ship. MMSI: 636091017.

Date/timePositionNaut miles runAvg speedWind from/ knotsBaromVisibWave heightAir tempDewpointWater temp
2016-Apr-21 16:33N 37°22' W 074°43'1919.0
2016-Apr-21 15:33N 37°41' W 074°43'1918.9
2016-Apr-21 14:32N 38°01' W 074°43'1818.9
2016-Apr-21 13:33N 38°19' W 074°43'1615.9
2016-Apr-21 12:33N 38°34' W 074°51'9 8.9
2016-Apr-21 11:33N 38°41' W 074°57'9 9.3
2016-Apr-21 10:33N 38°49' W 075°03'1110.5
2016-Apr-21 09:33N 38°59' W 075°08'1414.1
2016-Apr-21 08:33N 39°11' W 075°17'1716.7
2016-Apr-21 07:33N 39°24' W 075°30'1413.8
2016-Apr-21 06:34N 39°38' W 075°35'1110.9
2016-Apr-21 05:32N 39°47' W 075°27'9 9.0
2016-Apr-21 04:34N 39°51' W 075°17'7 6.8
2016-Apr-21 03:34N 39°53' W 075°08'2 1.7
2016-Apr-21 02:27N 39°55' W 075°08'0 0.0
2016-Apr-21 01:28N 39°55' W 075°08'0 0.0
2016-Apr-21 00:33N 39°55' W 075°08'0 0.0
2016-Apr-20 23:31N 39°55' W 075°08'0 0.0
2016-Apr-20 22:33N 39°55' W 075°08'0 0.0
2016-Apr-20 21:28N 39°55' W 075°08'0 0.0
2016-Apr-20 20:27N 39°55' W 075°08'0 0.0
2016-Apr-20 19:30N 39°55' W 075°08'0 0.0
2016-Apr-20 18:34N 39°55' W 075°08'0 0.0
2016-Apr-20 17:27N 39°55' W 075°08'0 0.0
2016-Apr-20 16:32N 39°55' W 075°08'0 0.0
2016-Apr-20 15:31N 39°55' W 075°08'0 0.0
2016-Apr-20 14:31N 39°55' W 075°08'0 0.0
2016-Apr-20 13:31N 39°55' W 075°08'0 0.0
2016-Apr-20 12:26N 39°55' W 075°08'0 0.0
2016-Apr-20 11:30N 39°55' W 075°08'0 0.0
2016-Apr-20 10:31N 39°55' W 075°08'0 0.0
2016-Apr-20 09:27N 39°55' W 075°08'0 0.0
2016-Apr-20 08:31N 39°55' W 075°08'0 0.0
2016-Apr-20 07:27N 39°55' W 075°08'0 0.0
2016-Apr-20 06:31N 39°55' W 075°08'0 0.0
2016-Apr-20 05:33N 39°55' W 075°08'0 0.0
2016-Apr-20 04:32N 39°55' W 075°08'0 0.0
2016-Apr-20 03:34N 39°55' W 075°08'0 0.0
2016-Apr-20 02:29N 39°55' W 075°08'0 0.0
2016-Apr-20 01:30N 39°55' W 075°08'0 0.0
2016-Apr-20 00:32N 39°55' W 075°08'0 0.0
2016-Apr-19 23:26N 39°55' W 075°08'0 0.0
2016-Apr-19 22:32N 39°55' W 075°08'0 0.0
2016-Apr-19 21:33N 39°55' W 075°08'0 0.0
2016-Apr-19 20:32N 39°55' W 075°08'0 0.0
2016-Apr-19 19:30N 39°55' W 075°08'0 0.0
2016-Apr-19 18:32N 39°55' W 075°08'2 2.5
2016-Apr-19 17:33N 39°53' W 075°10'9 9.4
2016-Apr-19 16:33N 39°50' W 075°21'1111.3
2016-Apr-19 15:33N 39°42' W 075°31'1313.0
2016-Apr-19 14:34N 39°29' W 075°34'1717.4
2016-Apr-19 13:33N 39°15' W 075°20'1716.9
2016-Apr-19 12:33N 39°01' W 075°09'1313.4
2016-Apr-19 11:34N 38°48' W 075°02'7 7.5
2016-Apr-19 10:34N 38°43' W 074°55'9 8.7
2016-Apr-19 09:34N 38°36' W 074°49'1413.6
2016-Apr-19 08:33N 38°25' W 074°39'1918.9
2016-Apr-19 07:33N 38°06' W 074°40'  
Track history (hours):
 
Tides and Currents Weather Stations Pressure Air Temp Water Temp Dewpoint Dewpoint Depression Visibility Wind Speed Wind Dir Waves Ship Positions

Santa Lucia

Last reported at 2016-Apr-21 16:33 UTC. Time now 2016-Apr-29 01:57 UTC.
Position N 37°22' W 074°43'.

Length 143 m; beam 22 m.

Type: Ship. MMSI: 636091017.

Date/timePositionNaut miles runAvg speedWind from/ knotsBaromVisibWave heightAir tempDewpointWater temp
2016-Apr-21 16:33N 37°22' W 074°43'1919.0
2016-Apr-21 15:33N 37°41' W 074°43'1918.9
2016-Apr-21 14:32N 38°01' W 074°43'1818.9
2016-Apr-21 13:33N 38°19' W 074°43'1615.9
2016-Apr-21 12:33N 38°34' W 074°51'9 8.9
2016-Apr-21 11:33N 38°41' W 074°57'9 9.3
2016-Apr-21 10:33N 38°49' W 075°03'1110.5
2016-Apr-21 09:33N 38°59' W 075°08'1414.1
2016-Apr-21 08:33N 39°11' W 075°17'1716.7
2016-Apr-21 07:33N 39°24' W 075°30'1413.8
2016-Apr-21 06:34N 39°38' W 075°35'1110.9
2016-Apr-21 05:32N 39°47' W 075°27'9 9.0
2016-Apr-21 04:34N 39°51' W 075°17'7 6.8
2016-Apr-21 03:34N 39°53' W 075°08'2 1.7
2016-Apr-21 02:27N 39°55' W 075°08'0 0.0
2016-Apr-21 01:28N 39°55' W 075°08'0 0.0
2016-Apr-21 00:33N 39°55' W 075°08'0 0.0
2016-Apr-20 23:31N 39°55' W 075°08'0 0.0
2016-Apr-20 22:33N 39°55' W 075°08'0 0.0
2016-Apr-20 21:28N 39°55' W 075°08'0 0.0
2016-Apr-20 20:27N 39°55' W 075°08'0 0.0
2016-Apr-20 19:30N 39°55' W 075°08'0 0.0
2016-Apr-20 18:34N 39°55' W 075°08'0 0.0
2016-Apr-20 17:27N 39°55' W 075°08'0 0.0
2016-Apr-20 16:32N 39°55' W 075°08'0 0.0
2016-Apr-20 15:31N 39°55' W 075°08'0 0.0
2016-Apr-20 14:31N 39°55' W 075°08'0 0.0
2016-Apr-20 13:31N 39°55' W 075°08'0 0.0
2016-Apr-20 12:26N 39°55' W 075°08'0 0.0
2016-Apr-20 11:30N 39°55' W 075°08'0 0.0
2016-Apr-20 10:31N 39°55' W 075°08'0 0.0
2016-Apr-20 09:27N 39°55' W 075°08'0 0.0
2016-Apr-20 08:31N 39°55' W 075°08'0 0.0
2016-Apr-20 07:27N 39°55' W 075°08'0 0.0
2016-Apr-20 06:31N 39°55' W 075°08'0 0.0
2016-Apr-20 05:33N 39°55' W 075°08'0 0.0
2016-Apr-20 04:32N 39°55' W 075°08'0 0.0
2016-Apr-20 03:34N 39°55' W 075°08'0 0.0
2016-Apr-20 02:29N 39°55' W 075°08'0 0.0
2016-Apr-20 01:30N 39°55' W 075°08'0 0.0
2016-Apr-20 00:32N 39°55' W 075°08'0 0.0
2016-Apr-19 23:26N 39°55' W 075°08'0 0.0
2016-Apr-19 22:32N 39°55' W 075°08'0 0.0
2016-Apr-19 21:33N 39°55' W 075°08'0 0.0
2016-Apr-19 20:32N 39°55' W 075°08'0 0.0
2016-Apr-19 19:30N 39°55' W 075°08'0 0.0
2016-Apr-19 18:32N 39°55' W 075°08'2 2.5
2016-Apr-19 17:33N 39°53' W 075°10'9 9.4
2016-Apr-19 16:33N 39°50' W 075°21'1111.3
2016-Apr-19 15:33N 39°42' W 075°31'1313.0
2016-Apr-19 14:34N 39°29' W 075°34'1717.4
2016-Apr-19 13:33N 39°15' W 075°20'1716.9
2016-Apr-19 12:33N 39°01' W 075°09'1313.4
2016-Apr-19 11:34N 38°48' W 075°02'7 7.5
2016-Apr-19 10:34N 38°43' W 074°55'9 8.7
2016-Apr-19 09:34N 38°36' W 074°49'1413.6
2016-Apr-19 08:33N 38°25' W 074°39'1918.9
2016-Apr-19 07:33N 38°06' W 074°40'  

Dump ship's entire track history